Mouth Of Wilson, Virginia
Current Conditions -  °F | °C
As of 3:55 PM on Sunday 21 Dec 2014 (Local Time) from KGEV Reporting Station
Overcast Overcast  
Wind Chill: 39°   Ceiling: 1600
Heat Index: 39°   Visibility: 7mi
Dew Point: 32°   Wind: 0mph
Humidity: 76%   Direction: NA
Pressure: 30.13"   Gusts: NA
Location:  36.59°N, 81.34°W
Report Text: KGEV 212055Z AUTO 00000KT 7SM OVC016 04/00 A3013 RMK AO2 T00371001
Loading
Personal Weather Stations






























Interactive Weather Map New forecast layout! Learn more

10-Day Weather Forecast

Advertisements
Track Severe Weather on mobile